createdAt,value
2018-06-24T00:01:39.657Z,3.30
2018-06-24T00:04:08.121Z,3.07
2018-06-24T00:06:36.455Z,3.10
2018-06-24T00:09:07.017Z,3.27
2018-06-24T00:11:35.392Z,3.63
2018-06-24T00:14:03.982Z,3.20
2018-06-24T00:16:32.374Z,3.17
2018-06-24T00:19:00.854Z,3.50
2018-06-24T00:21:29.425Z,3.60
2018-06-24T00:23:57.938Z,3.30
2018-06-24T00:26:26.287Z,3.33
2018-06-24T00:28:54.882Z,3.47
2018-06-24T00:31:23.565Z,3.40
2018-06-24T00:33:51.936Z,3.67
2018-06-24T00:36:20.430Z,3.30
2018-06-24T00:38:51.832Z,3.60
2018-06-24T00:41:20.250Z,3.70
2018-06-24T00:43:48.563Z,3.50
2018-06-24T00:46:17.171Z,3.50
2018-06-24T00:48:45.801Z,3.73
2018-06-24T00:51:14.350Z,3.60
2018-06-24T00:53:42.869Z,3.63
2018-06-24T00:56:11.242Z,3.20
2018-06-24T00:58:39.517Z,4.03
2018-06-24T01:01:08.012Z,3.40
2018-06-24T01:03:36.348Z,3.30
2018-06-24T01:06:04.862Z,3.63
2018-06-24T01:08:33.169Z,3.10
2018-06-24T01:11:01.525Z,3.10
2018-06-24T01:13:29.942Z,3.53
2018-06-24T01:15:58.534Z,3.40
2018-06-24T01:18:27.070Z,3.13
2018-06-24T01:20:55.345Z,3.03
2018-06-24T01:23:23.854Z,3.33
2018-06-24T01:25:52.232Z,3.60
2018-06-24T01:28:20.808Z,3.50
2018-06-24T01:30:49.414Z,3.00
2018-06-24T01:33:17.749Z,3.07
2018-06-24T01:35:46.232Z,3.13
2018-06-24T01:38:14.723Z,2.90
2018-06-24T01:40:43.232Z,3.00
2018-06-24T01:43:11.469Z,3.07
2018-06-24T01:45:39.641Z,3.83
2018-06-24T01:48:07.918Z,3.10
2018-06-24T01:50:37.321Z,3.00
2018-06-24T01:53:05.696Z,3.13
2018-06-24T01:55:34.103Z,3.43
2018-06-24T01:58:02.550Z,2.97
2018-06-24T02:00:31.046Z,3.13
2018-06-24T02:02:59.308Z,3.10
2018-06-24T02:05:27.801Z,2.70
2018-06-24T02:07:56.207Z,2.80
2018-06-24T02:10:24.809Z,2.90
2018-06-24T02:12:53.127Z,2.73
2018-06-24T02:15:21.530Z,2.60
2018-06-24T02:17:49.914Z,2.50
2018-06-24T02:20:18.444Z,2.70
2018-06-24T02:22:47.020Z,2.80
2018-06-24T02:25:15.225Z,2.70
2018-06-24T02:27:46.584Z,2.77
2018-06-24T02:30:14.894Z,2.53
2018-06-24T02:32:43.445Z,3.00
2018-06-24T02:35:12.009Z,2.67
2018-06-24T02:37:40.507Z,2.87
2018-06-24T02:40:09.005Z,3.10
2018-06-24T02:42:37.379Z,2.93
2018-06-24T02:45:06.078Z,3.30
2018-06-24T02:47:34.456Z,3.33
2018-06-24T02:50:02.932Z,2.60
2018-06-24T02:52:31.289Z,2.87
2018-06-24T02:54:59.923Z,2.97
2018-06-24T02:57:28.263Z,3.07
2018-06-24T02:59:57.364Z,3.40
2018-06-24T03:02:25.779Z,3.43
2018-06-24T03:04:54.149Z,2.90
2018-06-24T03:07:22.704Z,2.97
2018-06-24T03:09:51.093Z,3.03
2018-06-24T03:12:19.495Z,2.67
2018-06-24T03:14:47.770Z,3.00
2018-06-24T03:17:16.326Z,3.17
2018-06-24T03:19:44.958Z,3.27
2018-06-24T03:22:14.063Z,3.07
2018-06-24T03:24:42.501Z,2.67
2018-06-24T03:27:11.080Z,2.50
2018-06-24T03:29:39.350Z,2.40
2018-06-24T03:32:07.934Z,2.43
2018-06-24T03:34:36.205Z,2.60
2018-06-24T03:37:04.386Z,2.87
2018-06-24T03:39:32.648Z,4.77
2018-06-24T03:42:01.143Z,3.33
2018-06-24T03:44:29.628Z,4.00
2018-06-24T03:46:58.001Z,3.10
2018-06-24T03:49:26.498Z,2.70
2018-06-24T03:51:54.778Z,2.50
2018-06-24T03:54:23.241Z,2.60
2018-06-24T03:56:51.824Z,2.27
2018-06-24T03:59:20.301Z,2.43
2018-06-24T04:01:48.693Z,2.30
2018-06-24T04:04:17.090Z,2.37
2018-06-24T04:06:45.614Z,2.40
2018-06-24T04:09:14.206Z,2.20
2018-06-24T04:11:42.802Z,2.07
2018-06-24T04:14:11.231Z,2.40
2018-06-24T04:16:39.684Z,2.50
2018-06-24T04:19:08.186Z,2.43
2018-06-24T04:21:36.448Z,2.47
2018-06-24T04:24:04.918Z,2.40
2018-06-24T04:26:33.282Z,2.73
2018-06-24T04:29:01.577Z,2.30
2018-06-24T04:31:30.157Z,2.90
2018-06-24T04:33:58.737Z,3.50
2018-06-24T04:36:27.010Z,2.97
2018-06-24T04:38:55.612Z,3.60
2018-06-24T04:41:23.983Z,3.97
2018-06-24T04:43:53.061Z,2.80
2018-06-24T04:46:21.641Z,2.47
2018-06-24T04:48:50.241Z,2.53
2018-06-24T04:51:18.530Z,3.13
2018-06-24T04:53:46.925Z,2.30
2018-06-24T04:56:15.245Z,2.40
2018-06-24T04:58:43.558Z,2.90
2018-06-24T05:01:11.933Z,2.60
2018-06-24T05:03:40.314Z,2.50
2018-06-24T05:06:08.500Z,2.80
2018-06-24T05:08:37.002Z,2.70
2018-06-24T05:11:06.485Z,3.27
2018-06-24T05:13:35.134Z,3.50
2018-06-24T05:16:03.327Z,3.87
2018-06-24T05:18:31.384Z,5.23
2018-06-24T05:20:59.337Z,3.80
2018-06-24T05:23:27.270Z,2.80
2018-06-24T05:25:55.409Z,4.30
2018-06-24T05:28:23.697Z,3.83
2018-06-24T05:30:52.129Z,4.07
2018-06-24T05:33:20.201Z,4.50
2018-06-24T05:35:48.517Z,3.80
2018-06-24T05:38:17.017Z,4.10
2018-06-24T05:40:45.609Z,3.80
2018-06-24T05:43:13.963Z,3.40
2018-06-24T05:45:42.028Z,3.40
2018-06-24T05:48:10.418Z,3.70
2018-06-24T05:50:38.905Z,4.33
2018-06-24T05:53:07.204Z,4.20
2018-06-24T05:55:36.193Z,3.60
2018-06-24T05:58:04.862Z,3.20
2018-06-24T06:00:33.244Z,2.73
2018-06-24T06:03:01.827Z,2.70
2018-06-24T06:05:30.301Z,2.70
2018-06-24T06:07:58.785Z,2.63
2018-06-24T06:10:26.996Z,2.60
2018-06-24T06:12:55.572Z,2.60
2018-06-24T06:15:24.017Z,2.60
2018-06-24T06:17:52.321Z,2.53
2018-06-24T06:20:20.843Z,2.63
2018-06-24T06:22:49.380Z,2.80
2018-06-24T06:25:17.841Z,2.60
2018-06-24T06:27:46.117Z,2.60
2018-06-24T06:30:14.508Z,2.40
2018-06-24T06:32:45.748Z,2.50
2018-06-24T06:35:14.130Z,2.30
2018-06-24T06:37:42.708Z,2.50
2018-06-24T06:40:11.290Z,2.20
2018-06-24T06:42:39.691Z,2.10
2018-06-24T06:45:08.216Z,2.40
2018-06-24T06:47:36.691Z,2.00
2018-06-24T06:50:05.843Z,2.30
2018-06-24T06:52:34.217Z,1.90
2018-06-24T06:55:02.489Z,2.00
2018-06-24T06:57:31.114Z,2.07
2018-06-24T06:59:59.454Z,2.07
2018-06-24T07:02:28.074Z,1.90
2018-06-24T07:04:56.671Z,1.70
2018-06-24T07:07:25.001Z,1.60
2018-06-24T07:09:53.260Z,1.70
2018-06-24T07:12:21.762Z,1.50
2018-06-24T07:14:49.926Z,1.97
2018-06-24T07:17:19.429Z,1.70
2018-06-24T07:19:48.646Z,1.73
2018-06-24T07:22:17.016Z,1.90
2018-06-24T07:24:45.287Z,1.70
2018-06-24T07:27:17.988Z,1.93
2018-06-24T07:29:51.858Z,1.80
2018-06-24T07:32:20.057Z,2.07
2018-06-24T07:34:48.563Z,2.27
2018-06-24T07:37:16.816Z,2.30
2018-06-24T07:39:45.172Z,2.27
2018-06-24T07:42:13.468Z,2.17
2018-06-24T07:44:41.921Z,2.10
2018-06-24T07:47:10.151Z,1.93
2018-06-24T07:49:38.618Z,2.07
2018-06-24T07:52:06.885Z,1.80
2018-06-24T07:54:35.357Z,2.40
2018-06-24T07:57:03.842Z,2.17
2018-06-24T07:59:32.155Z,2.30
2018-06-24T08:02:00.714Z,2.10
2018-06-24T08:04:29.038Z,2.03
2018-06-24T08:06:57.541Z,2.60
2018-06-24T08:09:26.153Z,2.80
2018-06-24T08:11:54.629Z,2.10
2018-06-24T08:14:23.319Z,1.97
2018-06-24T08:16:51.807Z,2.20
2018-06-24T08:19:20.181Z,2.10
2018-06-24T08:21:48.674Z,2.90
2018-06-24T08:24:16.992Z,2.30
2018-06-24T08:26:45.423Z,2.13
2018-06-24T08:29:13.801Z,2.40
2018-06-24T08:31:42.267Z,2.00
2018-06-24T08:34:10.797Z,2.10
2018-06-24T08:36:39.354Z,2.10
2018-06-24T08:39:09.114Z,1.90
2018-06-24T08:41:37.671Z,1.70
2018-06-24T08:44:07.219Z,1.87
2018-06-24T08:46:35.886Z,2.10
2018-06-24T08:49:04.625Z,1.80
2018-06-24T08:51:33.203Z,2.00
2018-06-24T08:54:02.446Z,1.80
2018-06-24T08:56:30.994Z,1.97
2018-06-24T08:58:59.485Z,1.83
2018-06-24T09:01:27.959Z,1.87
2018-06-24T09:03:56.334Z,1.70
2018-06-24T09:06:24.811Z,2.23
2018-06-24T09:08:53.199Z,2.07
2018-06-24T09:11:21.574Z,2.10
2018-06-24T09:13:50.046Z,2.20
2018-06-24T09:16:18.430Z,2.27
2018-06-24T09:18:46.954Z,1.83
2018-06-24T09:21:15.407Z,1.80
2018-06-24T09:23:43.870Z,2.00
2018-06-24T09:26:12.514Z,2.03
2018-06-24T09:28:40.842Z,1.90
2018-06-24T09:31:09.831Z,1.57
2018-06-24T09:33:39.439Z,1.70
2018-06-24T09:36:08.162Z,1.60
2018-06-24T09:38:36.594Z,1.80
2018-06-24T09:41:05.317Z,1.80
2018-06-24T09:43:33.704Z,1.80
2018-06-24T09:46:02.565Z,1.83
2018-06-24T09:48:31.312Z,1.93
2018-06-24T09:51:00.065Z,1.90
2018-06-24T09:53:29.274Z,2.00
2018-06-24T09:55:57.755Z,1.50
2018-06-24T09:58:26.205Z,1.70
2018-06-24T10:00:54.712Z,1.87
2018-06-24T10:03:24.219Z,1.70
2018-06-24T10:05:52.850Z,1.60
2018-06-24T10:08:21.153Z,1.80
2018-06-24T10:10:50.205Z,1.70
2018-06-24T10:13:18.842Z,1.90
2018-06-24T10:15:47.314Z,1.70
2018-06-24T10:18:15.738Z,2.07
2018-06-24T10:20:44.382Z,1.77
2018-06-24T10:23:12.965Z,1.70
2018-06-24T10:25:41.349Z,1.90
2018-06-24T10:28:09.720Z,1.60
2018-06-24T10:30:38.337Z,1.80
2018-06-24T10:33:07.514Z,1.87
2018-06-24T10:35:35.974Z,1.90
2018-06-24T10:38:04.678Z,1.70
2018-06-24T10:40:33.290Z,1.83
2018-06-24T10:43:01.788Z,1.77
2018-06-24T10:45:30.358Z,2.23
2018-06-24T10:47:58.810Z,1.70
2018-06-24T10:50:27.207Z,1.77
2018-06-24T10:52:55.743Z,1.60
2018-06-24T10:55:24.394Z,1.80
2018-06-24T10:57:52.737Z,1.80
2018-06-24T11:00:21.337Z,1.67
2018-06-24T11:02:49.907Z,1.87
2018-06-24T11:05:18.377Z,1.70
2018-06-24T11:07:46.895Z,1.80
2018-06-24T11:10:15.728Z,1.87
2018-06-24T11:12:44.133Z,1.67
2018-06-24T11:15:12.755Z,2.00
2018-06-24T11:17:41.290Z,1.87
2018-06-24T11:20:09.777Z,2.17
2018-06-24T11:22:38.225Z,1.63
2018-06-24T11:25:06.857Z,2.10
2018-06-24T11:27:35.221Z,2.20
2018-06-24T11:30:03.865Z,2.10
2018-06-24T11:32:32.381Z,1.70
2018-06-24T11:35:01.030Z,1.80
2018-06-24T11:37:29.512Z,1.90
2018-06-24T11:39:58.066Z,2.50
2018-06-24T11:42:26.308Z,2.00
2018-06-24T11:44:54.946Z,1.90
2018-06-24T11:47:23.572Z,1.67
2018-06-24T11:49:51.974Z,1.70
2018-06-24T11:52:20.601Z,1.90
2018-06-24T11:54:49.261Z,1.87
2018-06-24T11:57:17.598Z,2.17
2018-06-24T11:59:46.321Z,2.23
2018-06-24T12:02:14.717Z,1.73
2018-06-24T12:04:43.040Z,2.10
2018-06-24T12:07:11.416Z,1.83
2018-06-24T12:09:39.851Z,2.03
2018-06-24T12:12:08.491Z,1.93
2018-06-24T12:14:37.897Z,2.10
2018-06-24T12:17:06.338Z,1.67
2018-06-24T12:19:34.779Z,1.97
2018-06-24T12:22:03.188Z,2.03
2018-06-24T12:24:31.670Z,1.97
2018-06-24T12:27:00.303Z,1.83
2018-06-24T12:29:28.809Z,2.10
2018-06-24T12:31:57.506Z,2.40
2018-06-24T12:34:26.782Z,2.20
2018-06-24T12:36:55.248Z,1.93
2018-06-24T12:39:23.651Z,2.00
2018-06-24T12:41:52.965Z,1.50
2018-06-24T12:44:21.404Z,2.03
2018-06-24T12:46:49.938Z,2.00
2018-06-24T12:49:18.482Z,5.60
2018-06-24T12:51:46.926Z,2.37
2018-06-24T12:54:15.450Z,1.70
2018-06-24T12:56:43.943Z,2.30
2018-06-24T12:59:12.744Z,2.93
2018-06-24T13:01:40.997Z,1.90
2018-06-24T13:04:09.651Z,2.23
2018-06-24T13:06:37.998Z,2.40
2018-06-24T13:09:08.184Z,1.80
2018-06-24T13:11:36.724Z,2.30
2018-06-24T13:14:05.284Z,1.70
2018-06-24T13:16:33.630Z,2.10
2018-06-24T13:19:02.249Z,2.07
2018-06-24T13:21:30.697Z,1.60
2018-06-24T13:23:59.205Z,2.40
2018-06-24T13:26:28.739Z,2.00
2018-06-24T13:28:57.268Z,1.90
2018-06-24T13:31:25.742Z,1.93
2018-06-24T13:33:54.475Z,1.67
2018-06-24T13:36:22.853Z,2.10
2018-06-24T13:38:51.345Z,1.87
2018-06-24T13:41:19.923Z,1.90
2018-06-24T13:43:48.450Z,1.93
2018-06-24T13:46:16.930Z,1.80
2018-06-24T13:48:45.554Z,1.83
2018-06-24T13:51:14.036Z,1.70
2018-06-24T13:53:42.581Z,1.80
2018-06-24T13:56:11.228Z,1.70
2018-06-24T13:58:40.790Z,1.50
2018-06-24T14:01:09.266Z,1.90
2018-06-24T14:03:37.700Z,2.13
2018-06-24T14:06:06.148Z,1.60
2018-06-24T14:08:34.872Z,2.00
2018-06-24T14:11:03.237Z,1.97
2018-06-24T14:13:31.783Z,1.83
2018-06-24T14:16:00.324Z,2.23
2018-06-24T14:18:29.026Z,2.10
2018-06-24T14:20:57.562Z,1.97
2018-06-24T14:23:25.996Z,2.17
2018-06-24T14:25:54.528Z,2.00
2018-06-24T14:28:23.179Z,2.27
2018-06-24T14:30:52.682Z,2.07
2018-06-24T14:33:21.341Z,1.90
2018-06-24T14:35:52.482Z,2.17
2018-06-24T14:38:20.841Z,2.10
2018-06-24T14:40:49.128Z,2.00
2018-06-24T14:43:17.654Z,2.17
2018-06-24T14:45:46.363Z,2.20
2018-06-24T14:48:14.822Z,2.00
2018-06-24T14:50:43.774Z,2.90
2018-06-24T14:53:12.338Z,2.20
2018-06-24T14:55:40.891Z,2.10
2018-06-24T14:58:09.652Z,2.30
2018-06-24T15:00:41.172Z,2.27
2018-06-24T15:03:09.593Z,2.43
2018-06-24T15:05:38.179Z,2.10
2018-06-24T15:08:06.826Z,2.30
2018-06-24T15:10:35.270Z,1.97
2018-06-24T15:13:03.934Z,2.27
2018-06-24T15:15:33.058Z,2.13
2018-06-24T15:18:01.393Z,2.20
2018-06-24T15:20:29.898Z,2.23
2018-06-24T15:22:58.338Z,2.20
2018-06-24T15:25:26.849Z,2.50
2018-06-24T15:27:55.746Z,2.17
2018-06-24T15:30:24.182Z,2.20
2018-06-24T15:32:52.693Z,2.17
2018-06-24T15:35:20.978Z,2.07
2018-06-24T15:37:49.522Z,2.20
2018-06-24T15:40:17.976Z,2.37
2018-06-24T15:42:46.624Z,2.50
2018-06-24T15:45:15.205Z,2.10
2018-06-24T15:47:43.644Z,2.53
2018-06-24T15:50:12.288Z,2.47
2018-06-24T15:52:40.877Z,2.90
2018-06-24T15:55:09.312Z,2.27
2018-06-24T15:57:37.818Z,2.43
2018-06-24T16:00:06.500Z,2.33
2018-06-24T16:02:34.925Z,2.30
2018-06-24T16:05:03.366Z,2.30
2018-06-24T16:07:31.763Z,2.00
2018-06-24T16:10:00.387Z,2.30
2018-06-24T16:12:28.622Z,2.07
2018-06-24T16:14:57.085Z,2.43
2018-06-24T16:17:25.504Z,2.17
2018-06-24T16:19:54.046Z,2.10
2018-06-24T16:22:22.539Z,2.10
2018-06-24T16:24:51.484Z,2.60
2018-06-24T16:27:19.897Z,2.40
2018-06-24T16:29:48.406Z,2.30
2018-06-24T16:32:16.804Z,2.17
2018-06-24T16:34:45.456Z,2.00
2018-06-24T16:37:13.650Z,2.00
2018-06-24T16:39:41.717Z,1.93
2018-06-24T16:42:09.743Z,2.03
2018-06-24T16:44:37.685Z,2.23
2018-06-24T16:47:06.066Z,2.87
2018-06-24T16:49:34.606Z,2.10
2018-06-24T16:52:02.881Z,2.20
2018-06-24T16:54:31.313Z,2.47
2018-06-24T16:56:59.562Z,3.63
2018-06-24T16:59:34.118Z,2.20
2018-06-24T17:02:02.637Z,3.50
2018-06-24T17:04:30.978Z,9.60
2018-06-24T17:06:59.345Z,4.63
2018-06-24T17:09:27.909Z,2.60
2018-06-24T17:11:56.410Z,2.40
2018-06-24T17:14:24.888Z,2.60
2018-06-24T17:16:53.512Z,2.43
2018-06-24T17:19:21.963Z,2.77
2018-06-24T17:21:50.441Z,3.50
2018-06-24T17:24:19.077Z,4.53
2018-06-24T17:26:47.614Z,2.60
2018-06-24T17:29:15.994Z,2.43
2018-06-24T17:31:44.758Z,3.10
2018-06-24T17:34:13.160Z,3.20
2018-06-24T17:36:41.633Z,2.70
2018-06-24T17:39:11.350Z,2.97
2018-06-24T17:41:39.846Z,2.50
2018-06-24T17:44:08.514Z,2.27
2018-06-24T17:46:37.116Z,2.10
2018-06-24T17:49:05.569Z,2.40
2018-06-24T17:51:34.219Z,2.40
2018-06-24T17:54:02.802Z,2.80
2018-06-24T17:56:31.931Z,2.80
2018-06-24T17:59:00.518Z,3.00
2018-06-24T18:01:29.101Z,3.00
2018-06-24T18:03:57.524Z,2.90
2018-06-24T18:06:25.974Z,2.77
2018-06-24T18:08:54.629Z,2.40
2018-06-24T18:11:23.149Z,2.73
2018-06-24T18:13:51.552Z,2.37
2018-06-24T18:16:21.605Z,2.60
2018-06-24T18:18:50.037Z,2.70
2018-06-24T18:21:18.610Z,2.70
2018-06-24T18:23:47.202Z,2.37
2018-06-24T18:26:15.769Z,2.90
2018-06-24T18:28:44.190Z,2.40
2018-06-24T18:31:12.534Z,2.80
2018-06-24T18:33:41.017Z,2.53
2018-06-24T18:36:09.766Z,3.03
2018-06-24T18:38:38.280Z,2.50
2018-06-24T18:41:06.840Z,2.30
2018-06-24T18:43:35.342Z,2.27
2018-06-24T18:46:04.025Z,2.50
2018-06-24T18:48:32.485Z,2.20
2018-06-24T18:51:00.992Z,2.50
2018-06-24T18:53:29.599Z,2.00
2018-06-24T18:55:57.965Z,2.00
2018-06-24T18:58:26.339Z,2.23
2018-06-24T19:00:54.733Z,2.30
2018-06-24T19:03:23.332Z,2.33
2018-06-24T19:05:51.869Z,2.20
2018-06-24T19:08:20.624Z,2.30
2018-06-24T19:10:49.040Z,2.30
2018-06-24T19:13:17.422Z,2.40
2018-06-24T19:15:46.024Z,2.17
2018-06-24T19:18:14.491Z,2.27
2018-06-24T19:20:43.033Z,2.53
2018-06-24T19:23:12.237Z,2.30
2018-06-24T19:25:40.678Z,2.10
2018-06-24T19:28:09.032Z,2.20
2018-06-24T19:30:37.593Z,2.07
2018-06-24T19:33:05.912Z,2.10
2018-06-24T19:35:34.326Z,2.20
2018-06-24T19:38:02.770Z,2.00
2018-06-24T19:40:31.145Z,2.20
2018-06-24T19:42:59.868Z,2.20
2018-06-24T19:45:28.306Z,2.10
2018-06-24T19:47:56.690Z,2.20
2018-06-24T19:50:25.304Z,2.20
2018-06-24T19:52:53.860Z,2.10
2018-06-24T19:55:22.288Z,2.00
2018-06-24T19:57:50.765Z,2.03
2018-06-24T20:00:19.309Z,1.80
2018-06-24T20:02:47.980Z,2.30
2018-06-24T20:05:16.436Z,1.97
2018-06-24T20:07:45.058Z,2.00
2018-06-24T20:10:13.462Z,2.10
2018-06-24T20:12:42.133Z,2.50
2018-06-24T20:15:10.368Z,2.00
2018-06-24T20:17:38.981Z,2.30
2018-06-24T20:20:07.078Z,1.90
2018-06-24T20:22:35.684Z,2.10
2018-06-24T20:25:04.209Z,2.30
2018-06-24T20:27:32.607Z,2.00
2018-06-24T20:30:01.237Z,2.13
2018-06-24T20:32:29.662Z,2.17
2018-06-24T20:34:58.277Z,2.00
2018-06-24T20:37:27.102Z,2.30
2018-06-24T20:39:55.425Z,2.00
2018-06-24T20:42:23.892Z,2.23
2018-06-24T20:44:52.321Z,2.23
2018-06-24T20:47:20.761Z,2.20
2018-06-24T20:49:49.328Z,2.20
2018-06-24T20:52:17.833Z,2.17
2018-06-24T20:54:46.340Z,2.00
2018-06-24T20:57:14.905Z,2.00
2018-06-24T20:59:43.408Z,2.27
2018-06-24T21:02:11.945Z,5.53
2018-06-24T21:04:40.413Z,2.70
2018-06-24T21:07:08.900Z,2.07
2018-06-24T21:09:37.177Z,1.87
2018-06-24T21:12:05.704Z,1.83
2018-06-24T21:14:34.234Z,1.90
2018-06-24T21:17:02.842Z,2.03
2018-06-24T21:19:31.327Z,1.77
2018-06-24T21:21:59.732Z,2.30
2018-06-24T21:24:32.317Z,2.00
2018-06-24T21:27:00.949Z,2.30
2018-06-24T21:29:29.554Z,2.00
2018-06-24T21:31:57.916Z,2.07
2018-06-24T21:34:26.448Z,2.83
2018-06-24T21:36:55.410Z,2.57
2018-06-24T21:39:23.882Z,2.60
2018-06-24T21:41:52.395Z,2.83
2018-06-24T21:44:21.592Z,2.23
2018-06-24T21:46:50.395Z,2.03
2018-06-24T21:49:18.990Z,2.30
2018-06-24T21:51:47.500Z,2.33
2018-06-24T21:54:16.077Z,2.30
2018-06-24T21:56:44.536Z,1.90
2018-06-24T21:59:12.958Z,1.93
2018-06-24T22:01:41.459Z,2.27
2018-06-24T22:04:10.077Z,2.00
2018-06-24T22:06:38.576Z,2.10
2018-06-24T22:09:10.065Z,1.77
2018-06-24T22:11:38.344Z,2.00
2018-06-24T22:14:06.925Z,2.20
2018-06-24T22:16:35.470Z,1.90
2018-06-24T22:19:03.801Z,2.27
2018-06-24T22:21:33.044Z,2.33
2018-06-24T22:24:01.664Z,2.33
2018-06-24T22:26:30.157Z,2.30
2018-06-24T22:28:58.544Z,2.10
2018-06-24T22:31:27.153Z,2.03
2018-06-24T22:33:56.413Z,2.10
2018-06-24T22:36:25.163Z,2.40
2018-06-24T22:38:53.636Z,2.40
2018-06-24T22:41:22.019Z,2.33
2018-06-24T22:43:50.597Z,2.10
2018-06-24T22:46:18.970Z,2.17
2018-06-24T22:48:47.511Z,2.20
2018-06-24T22:51:15.793Z,2.23
2018-06-24T22:53:44.214Z,2.40
2018-06-24T22:56:12.646Z,2.30
2018-06-24T22:58:41.025Z,2.57
2018-06-24T23:01:09.654Z,2.90
2018-06-24T23:03:38.107Z,2.40
2018-06-24T23:06:06.714Z,2.67
2018-06-24T23:08:35.226Z,2.50
2018-06-24T23:11:03.678Z,2.60
2018-06-24T23:13:32.222Z,2.20
2018-06-24T23:16:00.718Z,2.30
2018-06-24T23:18:29.087Z,2.70
2018-06-24T23:20:57.494Z,2.10
2018-06-24T23:23:26.060Z,2.13
2018-06-24T23:25:54.683Z,2.50
2018-06-24T23:28:23.020Z,2.30
2018-06-24T23:30:51.497Z,2.63
2018-06-24T23:33:20.003Z,2.10
2018-06-24T23:35:48.556Z,2.10
2018-06-24T23:38:17.045Z,2.20
2018-06-24T23:40:45.525Z,2.30
2018-06-24T23:43:13.993Z,2.30
2018-06-24T23:45:42.181Z,2.40
2018-06-24T23:48:10.554Z,2.40
2018-06-24T23:50:39.153Z,2.33
2018-06-24T23:53:07.560Z,2.60
2018-06-24T23:55:36.649Z,2.63
2018-06-24T23:58:05.203Z,2.60
